sensor_id;sensor_type;location;lat;lon;timestamp;pressure;altitude;pressure_sealevel;temperature;humidity
29839;BME280;18669;53.356;-1.464;2023-02-11T00:01:29;102218.25;;;10.89;100.00
29839;BME280;18669;53.356;-1.464;2023-02-11T00:03:56;102218.19;;;10.80;100.00
29839;BME280;18669;53.356;-1.464;2023-02-11T00:06:23;102219.94;;;10.73;100.00
29839;BME280;18669;53.356;-1.464;2023-02-11T00:08:49;102217.25;;;10.67;100.00
29839;BME280;18669;53.356;-1.464;2023-02-11T00:11:16;102225.25;;;10.97;100.00
29839;BME280;18669;53.356;-1.464;2023-02-11T00:13:43;102214.66;;;10.75;100.00
29839;BME280;18669;53.356;-1.464;2023-02-11T00:16:12;102219.03;;;10.76;100.00
29839;BME280;18669;53.356;-1.464;2023-02-11T00:18:38;102221.66;;;10.70;100.00
29839;BME280;18669;53.356;-1.464;2023-02-11T00:21:13;102212.94;;;10.85;100.00
29839;BME280;18669;53.356;-1.464;2023-02-11T00:23:40;102224.31;;;10.76;100.00
29839;BME280;18669;53.356;-1.464;2023-02-11T00:26:16;102228.75;;;10.91;100.00
29839;BME280;18669;53.356;-1.464;2023-02-11T00:28:44;102212.03;;;10.75;100.00
29839;BME280;18669;53.356;-1.464;2023-02-11T00:31:10;102217.28;;;10.73;100.00
29839;BME280;18669;53.356;-1.464;2023-02-11T00:33:37;102197.94;;;10.65;100.00
29839;BME280;18669;53.356;-1.464;2023-02-11T00:36:05;102213.78;;;10.78;100.00
29839;BME280;18669;53.356;-1.464;2023-02-11T00:38:31;102203.19;;;10.59;100.00
29839;BME280;18669;53.356;-1.464;2023-02-11T00:40:57;102205.81;;;10.64;100.00
29839;BME280;18669;53.356;-1.464;2023-02-11T00:43:24;102217.25;;;10.64;100.00
29839;BME280;18669;53.356;-1.464;2023-02-11T00:45:50;102206.69;;;10.56;100.00
29839;BME280;18669;53.356;-1.464;2023-02-11T00:48:16;102205.81;;;10.60;100.00
29839;BME280;18669;53.356;-1.464;2023-02-11T00:50:42;102220.81;;;10.79;100.00
29839;BME280;18669;53.356;-1.464;2023-02-11T00:53:08;102195.28;;;10.57;100.00
29839;BME280;18669;53.356;-1.464;2023-02-11T00:55:33;102211.19;;;10.85;100.00
29839;BME280;18669;53.356;-1.464;2023-02-11T00:58:00;102212.84;;;10.65;100.00
29839;BME280;18669;53.356;-1.464;2023-02-11T01:00:26;102204.94;;;10.65;100.00
29839;BME280;18669;53.356;-1.464;2023-02-11T01:02:53;102201.47;;;10.69;100.00
29839;BME280;18669;53.356;-1.464;2023-02-11T01:05:20;102195.28;;;10.64;100.00
29839;BME280;18669;53.356;-1.464;2023-02-11T01:07:46;102196.19;;;10.66;100.00
29839;BME280;18669;53.356;-1.464;2023-02-11T01:10:12;102213.84;;;10.88;100.00
29839;BME280;18669;53.356;-1.464;2023-02-11T01:12:38;102210.25;;;10.71;100.00
29839;BME280;18669;53.356;-1.464;2023-02-11T01:15:07;102201.50;;;10.73;100.00
29839;BME280;18669;53.356;-1.464;2023-02-11T01:17:34;102207.66;;;10.82;100.00
29839;BME280;18669;53.356;-1.464;2023-02-11T01:20:05;102202.44;;;10.86;100.00
29839;BME280;18669;53.356;-1.464;2023-02-11T01:22:31;102201.47;;;10.72;100.00
29839;BME280;18669;53.356;-1.464;2023-02-11T01:24:59;102207.63;;;10.72;100.00
29839;BME280;18669;53.356;-1.464;2023-02-11T01:27:25;102214.63;;;10.69;100.00
29839;BME280;18669;53.356;-1.464;2023-02-11T01:29:51;102195.31;;;10.70;100.00
29839;BME280;18669;53.356;-1.464;2023-02-11T01:32:17;102218.16;;;10.74;100.00
29839;BME280;18669;53.356;-1.464;2023-02-11T01:34:43;102212.88;;;10.69;100.00
29839;BME280;18669;53.356;-1.464;2023-02-11T01:37:09;102212.94;;;10.88;100.00
29839;BME280;18669;53.356;-1.464;2023-02-11T01:39:35;102203.16;;;10.60;100.00
29839;BME280;18669;53.356;-1.464;2023-02-11T01:42:01;102210.22;;;10.58;100.00
29839;BME280;18669;53.356;-1.464;2023-02-11T01:44:36;102209.34;;;10.69;100.00
29839;BME280;18669;53.356;-1.464;2023-02-11T01:47:03;102214.53;;;10.50;100.00
29839;BME280;18669;53.356;-1.464;2023-02-11T01:49:33;102217.22;;;10.56;100.00
29839;BME280;18669;53.356;-1.464;2023-02-11T01:52:11;102227.75;;;10.61;100.00
29839;BME280;18669;53.356;-1.464;2023-02-11T01:54:43;102230.38;;;10.56;100.00
29839;BME280;18669;53.356;-1.464;2023-02-11T01:57:31;102225.06;;;10.52;100.00
29839;BME280;18669;53.356;-1.464;2023-02-11T02:02:57;102221.59;;;10.54;100.00
29839;BME280;18669;53.356;-1.464;2023-02-11T02:10:26;102204.78;;;10.35;100.00
29839;BME280;18669;53.356;-1.464;2023-02-11T02:12:52;102224.06;;;10.31;100.00
29839;BME280;18669;53.356;-1.464;2023-02-11T02:15:22;102232.03;;;10.43;100.00
29839;BME280;18669;53.356;-1.464;2023-02-11T02:17:57;102228.53;;;10.44;100.00
29839;BME280;18669;53.356;-1.464;2023-02-11T02:31:52;102239.88;;;10.34;100.00
29839;BME280;18669;53.356;-1.464;2023-02-11T02:34:34;102251.22;;;10.32;100.00
29839;BME280;18669;53.356;-1.464;2023-02-11T02:37:16;102251.22;;;10.32;100.00
29839;BME280;18669;53.356;-1.464;2023-02-11T02:39:47;102242.41;;;10.22;100.00
29839;BME280;18669;53.356;-1.464;2023-02-11T02:42:15;102247.69;;;10.26;100.00
29839;BME280;18669;53.356;-1.464;2023-02-11T02:44:49;102241.56;;;10.29;100.00
29839;BME280;18669;53.356;-1.464;2023-02-11T02:47:15;102256.44;;;10.24;100.00
29839;BME280;18669;53.356;-1.464;2023-02-11T02:49:42;102253.81;;;10.22;100.00
29839;BME280;18669;53.356;-1.464;2023-02-11T03:02:51;102253.84;;;10.32;100.00
29839;BME280;18669;53.356;-1.464;2023-02-11T03:10:45;102238.97;;;10.34;100.00
29839;BME280;18669;53.356;-1.464;2023-02-11T03:13:13;102225.81;;;10.32;100.00
29839;BME280;18669;53.356;-1.464;2023-02-11T03:15:44;102234.63;;;10.37;100.00
29839;BME280;18669;53.356;-1.464;2023-02-11T03:18:14;102241.66;;;10.40;100.00
29839;BME280;18669;53.356;-1.464;2023-02-11T03:20:44;102246.06;;;10.39;100.00
29839;BME280;18669;53.356;-1.464;2023-02-11T03:23:18;102240.81;;;10.41;100.00
29839;BME280;18669;53.356;-1.464;2023-02-11T03:25:54;102246.94;;;10.40;100.00
29839;BME280;18669;53.356;-1.464;2023-02-11T03:28:42;102246.09;;;10.47;100.00
29839;BME280;18669;53.356;-1.464;2023-02-11T03:39:38;102255.75;;;10.48;100.00
29839;BME280;18669;53.356;-1.464;2023-02-11T03:42:07;102259.22;;;10.41;100.00
29839;BME280;18669;53.356;-1.464;2023-02-11T03:44:39;102263.63;;;10.42;100.00
29839;BME280;18669;53.356;-1.464;2023-02-11T03:47:08;102270.63;;;10.43;100.00
29839;BME280;18669;53.356;-1.464;2023-02-11T03:49:38;102271.50;;;10.42;100.00
29839;BME280;18669;53.356;-1.464;2023-02-11T03:52:05;102277.59;;;10.38;100.00
29839;BME280;18669;53.356;-1.464;2023-02-11T03:54:33;102272.31;;;10.36;100.00
29839;BME280;18669;53.356;-1.464;2023-02-11T03:57:00;102267.00;;;10.27;100.00
29839;BME280;18669;53.356;-1.464;2023-02-11T03:59:27;102269.66;;;10.35;100.00
29839;BME280;18669;53.356;-1.464;2023-02-11T04:01:53;102253.81;;;10.25;100.00
29839;BME280;18669;53.356;-1.464;2023-02-11T04:04:19;102245.97;;;10.30;100.00
29839;BME280;18669;53.356;-1.464;2023-02-11T04:06:46;102248.53;;;10.25;100.00
29839;BME280;18669;53.356;-1.464;2023-02-11T04:09:11;102248.69;;;10.39;100.00
29839;BME280;18669;53.356;-1.464;2023-02-11T04:11:37;102257.31;;;10.24;100.00
29839;BME280;18669;53.356;-1.464;2023-02-11T04:14:03;102266.94;;;10.21;100.00
29839;BME280;18669;53.356;-1.464;2023-02-11T04:16:29;102272.22;;;10.24;100.00
29839;BME280;18669;53.356;-1.464;2023-02-11T04:18:56;102264.34;;;10.24;100.00
29839;BME280;18669;53.356;-1.464;2023-02-11T04:21:22;102265.19;;;10.18;100.00
29839;BME280;18669;53.356;-1.464;2023-02-11T04:23:48;102254.66;;;10.18;100.00
29839;BME280;18669;53.356;-1.464;2023-02-11T04:26:14;102258.25;;;10.31;100.00
29839;BME280;18669;53.356;-1.464;2023-02-11T04:28:40;102273.91;;;10.15;100.00
29839;BME280;18669;53.356;-1.464;2023-02-11T04:31:05;102273.94;;;10.17;100.00
29839;BME280;18669;53.356;-1.464;2023-02-11T04:33:31;102275.66;;;10.12;100.00
29839;BME280;18669;53.356;-1.464;2023-02-11T04:35:57;102270.50;;;10.30;100.00
29839;BME280;18669;53.356;-1.464;2023-02-11T04:38:25;102266.00;;;10.11;100.00
29839;BME280;18669;53.356;-1.464;2023-02-11T04:40:50;102269.53;;;10.14;100.00
29839;BME280;18669;53.356;-1.464;2023-02-11T04:43:16;102276.66;;;10.31;100.00
29839;BME280;18669;53.356;-1.464;2023-02-11T04:45:42;102273.84;;;10.09;100.00
29839;BME280;18669;53.356;-1.464;2023-02-11T04:48:08;102279.13;;;10.06;100.00
29839;BME280;18669;53.356;-1.464;2023-02-11T04:50:34;102286.28;;;10.27;100.00
29839;BME280;18669;53.356;-1.464;2023-02-11T04:53:00;102280.03;;;10.14;100.00
29839;BME280;18669;53.356;-1.464;2023-02-11T04:55:26;102286.16;;;10.13;100.00
29839;BME280;18669;53.356;-1.464;2023-02-11T04:57:52;102287.97;;;10.16;100.00
29839;BME280;18669;53.356;-1.464;2023-02-11T05:00:20;102298.44;;;10.14;100.00
29839;BME280;18669;53.356;-1.464;2023-02-11T05:02:45;102303.81;;;10.28;100.00
29839;BME280;18669;53.356;-1.464;2023-02-11T05:05:11;102308.03;;;10.08;100.00
29839;BME280;18669;53.356;-1.464;2023-02-11T05:07:37;102308.09;;;10.14;100.00
29839;BME280;18669;53.356;-1.464;2023-02-11T05:10:03;102324.75;;;10.13;100.00
29839;BME280;18669;53.356;-1.464;2023-02-11T05:12:29;102315.19;;;10.27;100.00
29839;BME280;18669;53.356;-1.464;2023-02-11T05:14:55;102315.09;;;10.13;100.00
29839;BME280;18669;53.356;-1.464;2023-02-11T05:17:21;102307.16;;;10.06;100.00
29839;BME280;18669;53.356;-1.464;2023-02-11T05:19:47;102309.78;;;10.06;100.00
29839;BME280;18669;53.356;-1.464;2023-02-11T05:22:13;102314.31;;;10.25;100.00
29839;BME280;18669;53.356;-1.464;2023-02-11T05:24:39;102320.25;;;10.03;100.00
29839;BME280;18669;53.356;-1.464;2023-02-11T05:27:05;102322.06;;;10.05;100.00
29839;BME280;18669;53.356;-1.464;2023-02-11T05:29:31;102322.94;;;10.04;100.00
29839;BME280;18669;53.356;-1.464;2023-02-11T05:31:58;102328.25;;;10.12;100.00
29839;BME280;18669;53.356;-1.464;2023-02-11T05:34:24;102330.84;;;10.09;100.00
29839;BME280;18669;53.356;-1.464;2023-02-11T05:36:50;102336.09;;;10.09;100.00
29839;BME280;18669;53.356;-1.464;2023-02-11T05:39:16;102337.81;;;10.04;100.00
29839;BME280;18669;53.356;-1.464;2023-02-11T05:41:42;102337.81;;;10.04;100.00
29839;BME280;18669;53.356;-1.464;2023-02-11T05:44:08;102342.34;;;10.20;100.00
29839;BME280;18669;53.356;-1.464;2023-02-11T05:46:34;102342.19;;;10.03;100.00
29839;BME280;18669;53.356;-1.464;2023-02-11T05:49:00;102349.19;;;10.03;100.00
29839;BME280;18669;53.356;-1.464;2023-02-11T05:51:26;102345.69;;;10.02;100.00
29839;BME280;18669;53.356;-1.464;2023-02-11T05:53:52;102343.03;;;10.00;100.00
29839;BME280;18669;53.356;-1.464;2023-02-11T05:56:18;102340.53;;;10.14;100.00
29839;BME280;18669;53.356;-1.464;2023-02-11T05:58:44;102352.69;;;10.00;100.00
29839;BME280;18669;53.356;-1.464;2023-02-11T06:01:10;102336.88;;;9.97;100.00
29839;BME280;18669;53.356;-1.464;2023-02-11T06:03:36;102345.78;;;10.13;100.00
29839;BME280;18669;53.356;-1.464;2023-02-11T06:06:02;102342.13;;;9.98;100.00
29839;BME280;18669;53.356;-1.464;2023-02-11T06:08:28;102351.06;;;10.16;100.00
29839;BME280;18669;53.356;-1.464;2023-02-11T06:10:54;102340.34;;;9.94;100.00
29839;BME280;18669;53.356;-1.464;2023-02-11T06:13:19;102349.13;;;9.96;100.00
29839;BME280;18669;53.356;-1.464;2023-02-11T06:15:55;102351.03;;;10.11;100.00
29839;BME280;18669;53.356;-1.464;2023-02-11T06:18:21;102343.03;;;9.99;100.00
29839;BME280;18669;53.356;-1.464;2023-02-11T06:20:47;102344.72;;;9.95;100.00
29839;BME280;18669;53.356;-1.464;2023-02-11T06:23:13;102343.00;;;9.96;100.00
29839;BME280;18669;53.356;-1.464;2023-02-11T06:25:39;102355.31;;;10.00;100.00
29839;BME280;18669;53.356;-1.464;2023-02-11T06:28:05;102344.78;;;10.00;100.00
29839;BME280;18669;53.356;-1.464;2023-02-11T06:30:31;102347.41;;;9.97;100.00
29839;BME280;18669;53.356;-1.464;2023-02-11T06:32:57;102361.50;;;10.07;100.00
29839;BME280;18669;53.356;-1.464;2023-02-11T06:35:22;102363.38;;;10.22;100.00
29839;BME280;18669;53.356;-1.464;2023-02-11T06:37:48;102353.53;;;9.97;100.00
29839;BME280;18669;53.356;-1.464;2023-02-11T06:40:14;102362.31;;;9.99;100.00
29839;BME280;18669;53.356;-1.464;2023-02-11T06:42:40;102370.25;;;10.04;100.00
29839;BME280;18669;53.356;-1.464;2023-02-11T06:45:07;102358.88;;;10.07;100.00
29839;BME280;18669;53.356;-1.464;2023-02-11T06:47:40;102366.78;;;10.10;100.00
29839;BME280;18669;53.356;-1.464;2023-02-11T06:50:09;102363.28;;;10.08;100.00
29839;BME280;18669;53.356;-1.464;2023-02-11T06:52:35;102366.66;;;9.96;100.00
29839;BME280;18669;53.356;-1.464;2023-02-11T06:55:01;102367.56;;;9.99;100.00
29839;BME280;18669;53.356;-1.464;2023-02-11T06:57:29;102377.28;;;10.08;100.00
29839;BME280;18669;53.356;-1.464;2023-02-11T06:59:55;102375.41;;;9.95;100.00
29839;BME280;18669;53.356;-1.464;2023-02-11T07:02:21;102381.53;;;9.94;100.00
29839;BME280;18669;53.356;-1.464;2023-02-11T07:04:47;102385.00;;;9.91;100.00
29839;BME280;18669;53.356;-1.464;2023-02-11T07:07:13;102378.09;;;9.98;100.00
29839;BME280;18669;53.356;-1.464;2023-02-11T07:09:39;102385.13;;;10.02;100.00
29839;BME280;18669;53.356;-1.464;2023-02-11T07:12:05;102380.72;;;9.99;100.00
29839;BME280;18669;53.356;-1.464;2023-02-11T07:14:31;102379.81;;;9.96;100.00
29839;BME280;18669;53.356;-1.464;2023-02-11T07:16:57;102392.06;;;9.95;100.00
29839;BME280;18669;53.356;-1.464;2023-02-11T07:19:23;102397.50;;;10.11;100.00
29839;BME280;18669;53.356;-1.464;2023-02-11T07:21:49;102400.81;;;9.94;100.00
29839;BME280;18669;53.356;-1.464;2023-02-11T07:24:15;102396.38;;;9.89;100.00
29839;BME280;18669;53.356;-1.464;2023-02-11T07:26:41;102392.88;;;9.90;100.00
29839;BME280;18669;53.356;-1.464;2023-02-11T07:29:07;102412.38;;;10.10;100.00
29839;BME280;18669;53.356;-1.464;2023-02-11T07:31:33;102406.03;;;9.90;100.00
29839;BME280;18669;53.356;-1.464;2023-02-11T07:34:00;102417.56;;;10.03;100.00
29839;BME280;18669;53.356;-1.464;2023-02-11T07:36:27;102415.75;;;9.98;100.00
29839;BME280;18669;53.356;-1.464;2023-02-11T07:38:54;102415.72;;;9.95;100.00
29839;BME280;18669;53.356;-1.464;2023-02-11T07:41:21;102419.25;;;9.97;100.00
29839;BME280;18669;53.356;-1.464;2023-02-11T07:43:48;102428.84;;;9.91;100.00
29839;BME280;18669;53.356;-1.464;2023-02-11T07:46:19;102421.91;;;10.00;100.00
29839;BME280;18669;53.356;-1.464;2023-02-11T07:48:45;102420.03;;;9.90;100.00
29839;BME280;18669;53.356;-1.464;2023-02-11T07:51:18;102420.19;;;10.01;100.00
29839;BME280;18669;53.356;-1.464;2023-02-11T07:53:45;102432.34;;;9.93;100.00
29839;BME280;18669;53.356;-1.464;2023-02-11T07:56:12;102431.41;;;9.86;100.00
29839;BME280;18669;53.356;-1.464;2023-02-11T07:58:38;102431.34;;;9.81;100.00
29839;BME280;18669;53.356;-1.464;2023-02-11T08:01:09;102430.56;;;9.90;100.00
29839;BME280;18669;53.356;-1.464;2023-02-11T08:03:36;102441.94;;;9.86;100.00
29839;BME280;18669;53.356;-1.464;2023-02-11T08:06:08;102429.78;;;9.96;100.00
29839;BME280;18669;53.356;-1.464;2023-02-11T08:08:35;102426.03;;;9.77;100.00
29839;BME280;18669;53.356;-1.464;2023-02-11T08:11:15;102420.13;;;9.95;100.00
29839;BME280;18669;53.356;-1.464;2023-02-11T08:13:42;102432.31;;;9.88;100.00
29839;BME280;18669;53.356;-1.464;2023-02-11T08:16:08;102427.03;;;9.85;100.00
29839;BME280;18669;53.356;-1.464;2023-02-11T08:18:35;102422.66;;;9.89;100.00
29839;BME280;18669;53.356;-1.464;2023-02-11T08:21:06;102424.53;;;9.99;100.00
29839;BME280;18669;53.356;-1.464;2023-02-11T08:23:32;102415.69;;;9.92;100.00
29839;BME280;18669;53.356;-1.464;2023-02-11T08:26:04;102421.09;;;10.05;100.00
29839;BME280;18669;53.356;-1.464;2023-02-11T08:28:30;102425.34;;;9.92;100.00
29839;BME280;18669;53.356;-1.464;2023-02-11T08:30:56;102414.78;;;9.89;100.00
29839;BME280;18669;53.356;-1.464;2023-02-11T08:33:22;102424.44;;;9.90;100.00
29839;BME280;18669;53.356;-1.464;2023-02-11T08:35:48;102416.69;;;10.04;100.00
29839;BME280;18669;53.356;-1.464;2023-02-11T08:38:14;102413.97;;;9.94;100.00
29839;BME280;18669;53.356;-1.464;2023-02-11T08:40:40;102415.78;;;10.00;100.00
29839;BME280;18669;53.356;-1.464;2023-02-11T08:43:06;102432.44;;;10.00;100.00
29839;BME280;18669;53.356;-1.464;2023-02-11T08:45:32;102443.00;;;10.02;100.00
29839;BME280;18669;53.356;-1.464;2023-02-11T08:47:58;102448.28;;;10.05;100.00
29839;BME280;18669;53.356;-1.464;2023-02-11T08:50:24;102438.63;;;10.06;100.00
29839;BME280;18669;53.356;-1.464;2023-02-11T08:52:51;102436.91;;;10.06;100.00
29839;BME280;18669;53.356;-1.464;2023-02-11T08:55:17;102441.31;;;10.10;100.00
29839;BME280;18669;53.356;-1.464;2023-02-11T08:57:43;102437.84;;;10.13;100.00
29839;BME280;18669;53.356;-1.464;2023-02-11T09:00:10;102438.69;;;10.13;100.00
29839;BME280;18669;53.356;-1.464;2023-02-11T09:02:37;102441.41;;;10.18;100.00
29839;BME280;18669;53.356;-1.464;2023-02-11T09:05:03;102434.34;;;10.15;100.00
29839;BME280;18669;53.356;-1.464;2023-02-11T09:07:28;102442.44;;;10.36;100.00
29839;BME280;18669;53.356;-1.464;2023-02-11T09:09:54;102438.84;;;10.27;100.00
29839;BME280;18669;53.356;-1.464;2023-02-11T09:12:20;102435.34;;;10.27;100.00
29839;BME280;18669;53.356;-1.464;2023-02-11T09:14:46;102434.50;;;10.31;100.00
29839;BME280;18669;53.356;-1.464;2023-02-11T09:17:12;102449.38;;;10.26;100.00
29839;BME280;18669;53.356;-1.464;2023-02-11T09:19:38;102460.72;;;10.20;100.00
29839;BME280;18669;53.356;-1.464;2023-02-11T09:22:04;102459.91;;;10.30;100.00
29839;BME280;18669;53.356;-1.464;2023-02-11T09:24:30;102468.00;;;10.46;100.00
29839;BME280;18669;53.356;-1.464;2023-02-11T09:26:56;102445.88;;;10.27;100.00
29839;BME280;18669;53.356;-1.464;2023-02-11T09:29:22;102444.16;;;10.32;100.00
29839;BME280;18669;53.356;-1.464;2023-02-11T09:31:48;102448.84;;;10.59;100.00
29839;BME280;18669;53.356;-1.464;2023-02-11T09:34:14;102447.94;;;10.60;100.00
29839;BME280;18669;53.356;-1.464;2023-02-11T09:36:40;102444.53;;;10.69;100.00
29839;BME280;18669;53.356;-1.464;2023-02-11T09:39:10;102450.75;;;10.79;100.00
29839;BME280;18669;53.356;-1.464;2023-02-11T09:44:32;102467.28;;;10.66;100.00
29839;BME280;18669;53.356;-1.464;2023-02-11T09:47:04;102464.63;;;10.59;100.00
29839;BME280;18669;53.356;-1.464;2023-02-11T09:49:44;102465.66;;;10.76;100.00
29839;BME280;18669;53.356;-1.464;2023-02-11T09:54:58;102475.19;;;10.64;100.00
29839;BME280;18669;53.356;-1.464;2023-02-11T09:57:32;102473.44;;;10.65;100.00
29839;BME280;18669;53.356;-1.464;2023-02-11T10:00:00;102473.50;;;10.69;100.00
29839;BME280;18669;53.356;-1.464;2023-02-11T10:02:35;102470.91;;;10.79;100.00
29839;BME280;18669;53.356;-1.464;2023-02-11T10:05:21;102474.47;;;10.84;100.00
29839;BME280;18669;53.356;-1.464;2023-02-11T10:07:52;102474.47;;;10.84;100.00
29839;BME280;18669;53.356;-1.464;2023-02-11T10:21:29;102485.31;;;11.27;100.00
29839;BME280;18669;53.356;-1.464;2023-02-11T10:23:59;102494.22;;;11.48;100.00
29839;BME280;18669;53.356;-1.464;2023-02-11T10:26:29;102482.81;;;11.49;100.00
29839;BME280;18669;53.356;-1.464;2023-02-11T10:28:59;102478.47;;;11.56;100.00
29839;BME280;18669;53.356;-1.464;2023-02-11T10:31:41;102469.78;;;11.85;100.00
29839;BME280;18669;53.356;-1.464;2023-02-11T10:34:10;102469.84;;;11.97;100.00
29839;BME280;18669;53.356;-1.464;2023-02-11T10:36:39;102465.56;;;12.33;97.47
29839;BME280;18669;53.356;-1.464;2023-02-11T10:41:42;102453.28;;;12.77;88.38
29839;BME280;18669;53.356;-1.464;2023-02-11T10:44:18;102453.28;;;12.87;84.79
29839;BME280;18669;53.356;-1.464;2023-02-11T10:46:47;102447.09;;;12.86;83.89
29839;BME280;18669;53.356;-1.464;2023-02-11T10:49:41;102440.94;;;12.84;82.04
29839;BME280;18669;53.356;-1.464;2023-02-11T10:52:23;102462.91;;;13.00;83.47
29839;BME280;18669;53.356;-1.464;2023-02-11T10:55:03;102469.06;;;13.24;79.98
29839;BME280;18669;53.356;-1.464;2023-02-11T10:57:39;102449.66;;;13.47;78.76
29839;BME280;18669;53.356;-1.464;2023-02-11T11:00:34;102453.16;;;13.49;74.08
29839;BME280;18669;53.356;-1.464;2023-02-11T11:06:07;102460.19;;;13.56;73.42
29839;BME280;18669;53.356;-1.464;2023-02-11T11:08:49;102459.34;;;13.40;72.52
29839;BME280;18669;53.356;-1.464;2023-02-11T11:11:18;102464.59;;;13.38;73.23
29839;BME280;18669;53.356;-1.464;2023-02-11T11:14:00;102462.84;;;13.48;72.61
29839;BME280;18669;53.356;-1.464;2023-02-11T11:16:32;102455.72;;;13.69;71.95
29839;BME280;18669;53.356;-1.464;2023-02-11T11:21:43;102443.38;;;13.74;72.04
29839;BME280;18669;53.356;-1.464;2023-02-11T11:24:28;102430.22;;;13.49;73.65
29839;BME280;18669;53.356;-1.464;2023-02-11T11:27:00;102440.81;;;13.38;74.51
29839;BME280;18669;53.356;-1.464;2023-02-11T11:29:42;102446.00;;;13.74;72.75
29839;BME280;18669;53.356;-1.464;2023-02-11T11:32:24;102442.28;;;14.12;69.53
29839;BME280;18669;53.356;-1.464;2023-02-11T11:34:56;102445.44;;;14.61;68.14
29839;BME280;18669;53.356;-1.464;2023-02-11T11:37:29;102443.09;;;15.25;64.52
29839;BME280;18669;53.356;-1.464;2023-02-11T11:40:01;102444.03;;;15.94;60.67
29839;BME280;18669;53.356;-1.464;2023-02-11T11:42:33;102434.88;;;16.17;59.25
29839;BME280;18669;53.356;-1.464;2023-02-11T11:45:02;102423.19;;;16.28;57.64
29839;BME280;18669;53.356;-1.464;2023-02-11T11:47:37;102428.50;;;16.81;56.57
29839;BME280;18669;53.356;-1.464;2023-02-11T11:50:26;102425.28;;;17.13;53.95
29839;BME280;18669;53.356;-1.464;2023-02-11T11:52:57;102423.22;;;17.70;52.97
29839;BME280;18669;53.356;-1.464;2023-02-11T11:55:29;102421.88;;;18.31;51.28
29839;BME280;18669;53.356;-1.464;2023-02-11T11:57:57;102416.97;;;19.18;48.89
29839;BME280;18669;53.356;-1.464;2023-02-11T12:00:30;102423.41;;;19.42;47.31
29839;BME280;18669;53.356;-1.464;2023-02-11T12:11:49;102413.72;;;21.29;41.94
29839;BME280;18669;53.356;-1.464;2023-02-11T12:15:16;102410.13;;;21.54;42.14
29839;BME280;18669;53.356;-1.464;2023-02-11T12:18:08;102404.63;;;21.34;41.45
29839;BME280;18669;53.356;-1.464;2023-02-11T12:21:01;102406.69;;;21.27;41.73
29839;BME280;18669;53.356;-1.464;2023-02-11T12:23:43;102409.56;;;21.21;42.11
29839;BME280;18669;53.356;-1.464;2023-02-11T12:26:17;102403.09;;;20.77;41.67
29839;BME280;18669;53.356;-1.464;2023-02-11T12:29:02;102404.78;;;21.05;42.31
29839;BME280;18669;53.356;-1.464;2023-02-11T12:37:23;102411.03;;;21.29;39.77
29839;BME280;18669;53.356;-1.464;2023-02-11T12:40:08;102410.19;;;21.04;41.40
29839;BME280;18669;53.356;-1.464;2023-02-11T12:42:50;102399.16;;;21.37;40.58
29839;BME280;18669;53.356;-1.464;2023-02-11T12:51:08;102404.19;;;21.46;40.18
29839;BME280;18669;53.356;-1.464;2023-02-11T12:56:18;102419.03;;;22.01;39.65
29839;BME280;18669;53.356;-1.464;2023-02-11T12:58:49;102404.84;;;22.42;39.42
29839;BME280;18669;53.356;-1.464;2023-02-11T13:01:34;102402.00;;;22.88;38.19
29839;BME280;18669;53.356;-1.464;2023-02-11T13:04:25;102408.34;;;23.27;36.77
29839;BME280;18669;53.356;-1.464;2023-02-11T13:06:58;102418.97;;;22.88;37.43
29839;BME280;18669;53.356;-1.464;2023-02-11T13:09:33;102426.66;;;21.66;38.89
29839;BME280;18669;53.356;-1.464;2023-02-11T13:12:02;102424.91;;;20.92;40.05
29839;BME280;18669;53.356;-1.464;2023-02-11T13:14:51;102424.63;;;18.99;43.67
29839;BME280;18669;53.356;-1.464;2023-02-11T13:17:29;102433.28;;;17.97;45.91
29839;BME280;18669;53.356;-1.464;2023-02-11T13:20:11;102439.59;;;17.06;48.05
29839;BME280;18669;53.356;-1.464;2023-02-11T13:22:43;102429.47;;;16.23;50.61
29839;BME280;18669;53.356;-1.464;2023-02-11T13:30:34;102426.69;;;16.83;50.14
29839;BME280;18669;53.356;-1.464;2023-02-11T13:33:04;102425.13;;;16.73;51.32
29839;BME280;18669;53.356;-1.464;2023-02-11T13:38:26;102426.84;;;17.66;49.93
29839;BME280;18669;53.356;-1.464;2023-02-11T13:41:17;102424.53;;;17.92;49.00
29839;BME280;18669;53.356;-1.464;2023-02-11T13:43:57;102435.16;;;17.07;49.98
29839;BME280;18669;53.356;-1.464;2023-02-11T13:46:25;102437.56;;;16.14;52.20
29839;BME280;18669;53.356;-1.464;2023-02-11T13:48:53;102438.31;;;15.57;53.92
29839;BME280;18669;53.356;-1.464;2023-02-11T13:51:34;102432.31;;;15.39;55.38
29839;BME280;18669;53.356;-1.464;2023-02-11T13:54:02;102432.25;;;15.47;55.16
29839;BME280;18669;53.356;-1.464;2023-02-11T13:56:34;102425.88;;;15.60;55.23
29839;BME280;18669;53.356;-1.464;2023-02-11T13:59:04;102426.56;;;15.75;55.10
29839;BME280;18669;53.356;-1.464;2023-02-11T14:10:56;102443.72;;;14.57;61.37
29839;BME280;18669;53.356;-1.464;2023-02-11T14:16:08;102438.66;;;14.26;62.91
29839;BME280;18669;53.356;-1.464;2023-02-11T14:23:45;102435.28;;;14.02;67.52
29839;BME280;18669;53.356;-1.464;2023-02-11T14:29:25;102438.78;;;14.04;67.88
29839;BME280;18669;53.356;-1.464;2023-02-11T14:32:22;102442.34;;;13.98;69.38
29839;BME280;18669;53.356;-1.464;2023-02-11T14:42:49;102454.91;;;13.48;76.13
29839;BME280;18669;53.356;-1.464;2023-02-11T14:45:22;102452.25;;;13.57;77.00
29839;BME280;18669;53.356;-1.464;2023-02-11T14:48:02;102462.84;;;13.45;77.20
29839;BME280;18669;53.356;-1.464;2023-02-11T14:50:40;102466.38;;;13.44;80.96
29839;BME280;18669;53.356;-1.464;2023-02-11T14:53:14;102458.44;;;13.39;78.42
29839;BME280;18669;53.356;-1.464;2023-02-11T14:55:42;102467.28;;;13.37;77.67